createdAt,value
2023-01-21T00:01:08.208Z,-0.46
2023-01-21T00:03:34.828Z,-0.52
2023-01-21T00:06:01.981Z,-0.43
2023-01-21T00:08:28.941Z,-0.39
2023-01-21T00:10:55.554Z,-0.44
2023-01-21T00:13:22.199Z,-0.49
2023-01-21T00:15:49.101Z,-0.52
2023-01-21T00:18:15.679Z,-0.49
2023-01-21T00:20:42.314Z,-0.40
2023-01-21T00:23:10.971Z,-0.36
2023-01-21T00:25:37.592Z,-0.51
2023-01-21T00:28:04.237Z,-0.47
2023-01-21T00:30:30.823Z,-0.48
2023-01-21T00:32:57.415Z,-0.54
2023-01-21T00:35:23.963Z,-0.48
2023-01-21T00:37:53.406Z,-0.45
2023-01-21T00:40:20.224Z,-0.39
2023-01-21T00:42:46.780Z,-0.45
2023-01-21T00:45:13.460Z,-0.47
2023-01-21T00:47:40.350Z,-0.35
2023-01-21T00:50:07.639Z,-0.46
2023-01-21T00:52:34.223Z,-0.36
2023-01-21T00:55:00.796Z,-0.49
2023-01-21T00:57:27.365Z,-0.46
2023-01-21T00:59:54.119Z,-0.49
2023-01-21T01:02:20.737Z,-0.49
2023-01-21T01:04:47.392Z,-0.45
2023-01-21T01:07:13.974Z,-0.60
2023-01-21T01:09:40.508Z,-0.49
2023-01-21T01:12:07.328Z,-0.69
2023-01-21T01:14:33.817Z,-0.70
2023-01-21T01:17:00.386Z,-0.76
2023-01-21T01:19:27.009Z,-0.90
2023-01-21T01:21:53.556Z,-0.97
2023-01-21T01:24:20.147Z,-0.98
2023-01-21T01:26:46.753Z,-0.88
2023-01-21T01:29:13.719Z,-0.85
2023-01-21T01:31:40.398Z,-0.93
2023-01-21T01:34:07.067Z,-0.85
2023-01-21T01:36:33.643Z,-0.86
2023-01-21T01:39:00.326Z,-0.91
2023-01-21T01:41:30.128Z,-1.05
2023-01-21T01:44:26.856Z,-0.91
2023-01-21T01:46:56.704Z,-1.07
2023-01-21T01:49:23.536Z,-1.02
2023-01-21T01:52:01.373Z,-1.14
2023-01-21T01:54:32.481Z,-1.20
2023-01-21T01:59:36.933Z,-1.36
2023-01-21T02:02:06.989Z,-1.41
2023-01-21T02:04:40.339Z,-1.40
2023-01-21T02:07:07.631Z,-1.45
2023-01-21T02:09:34.385Z,-1.29
2023-01-21T02:14:42.977Z,-1.36
2023-01-21T02:17:21.406Z,-1.41
2023-01-21T02:19:57.562Z,-1.38
2023-01-21T02:25:54.425Z,-1.24
2023-01-21T02:29:05.693Z,-1.27
2023-01-21T02:31:50.962Z,-1.52
2023-01-21T02:34:38.884Z,-1.44
2023-01-21T02:37:11.907Z,-1.43
2023-01-21T02:39:50.484Z,-1.44
2023-01-21T02:42:55.267Z,-1.47
2023-01-21T02:45:33.586Z,-1.57
2023-01-21T02:48:10.957Z,-1.55
2023-01-21T02:50:52.569Z,-1.50
2023-01-21T02:53:34.859Z,-1.41
2023-01-21T02:56:09.587Z,-1.27
2023-01-21T02:58:40.140Z,-1.50
2023-01-21T03:01:18.554Z,-1.39
2023-01-21T03:04:03.316Z,-1.30
2023-01-21T03:06:39.177Z,-1.40
2023-01-21T03:09:26.216Z,-1.33
2023-01-21T03:12:29.936Z,-1.43
2023-01-21T03:15:22.600Z,-1.50
2023-01-21T03:18:01.197Z,-1.50
2023-01-21T03:20:34.399Z,-1.46
2023-01-21T03:23:12.685Z,-1.48
2023-01-21T03:25:41.073Z,-1.39
2023-01-21T03:28:14.068Z,-1.50
2023-01-21T03:30:42.712Z,-1.52
2023-01-21T03:33:13.016Z,-1.50
2023-01-21T03:35:44.079Z,-1.53
2023-01-21T03:38:18.466Z,-1.62
2023-01-21T03:40:55.527Z,-1.47
2023-01-21T03:43:22.341Z,-1.61
2023-01-21T03:46:15.247Z,-1.52
2023-01-21T03:48:49.463Z,-1.54
2023-01-21T03:51:22.016Z,-1.59
2023-01-21T03:53:59.553Z,-1.56
2023-01-21T03:56:27.212Z,-1.59
2023-01-21T03:58:54.400Z,-1.79
2023-01-21T04:01:21.306Z,-1.70
2023-01-21T04:03:47.907Z,-1.70
2023-01-21T04:06:16.525Z,-1.63
2023-01-21T04:08:43.345Z,-1.61
2023-01-21T04:11:10.150Z,-1.71
2023-01-21T04:13:37.059Z,-1.70
2023-01-21T04:18:41.753Z,-2.01
2023-01-21T04:21:08.395Z,-1.81
2023-01-21T04:23:35.007Z,-1.74
2023-01-21T04:26:01.582Z,-1.87
2023-01-21T04:30:59.739Z,-1.98
2023-01-21T04:33:26.566Z,-2.17
2023-01-21T04:35:57.919Z,-2.18
2023-01-21T04:38:24.518Z,-2.18
2023-01-21T04:40:51.132Z,-2.14
2023-01-21T04:43:17.987Z,-2.22
2023-01-21T04:45:44.561Z,-2.21
2023-01-21T04:48:11.323Z,-2.24
2023-01-21T04:50:37.873Z,-2.48
2023-01-21T04:55:36.845Z,-2.62
2023-01-21T04:58:03.481Z,-2.62
2023-01-21T05:00:29.986Z,-2.50
2023-01-21T05:02:56.785Z,-2.77
2023-01-21T05:05:23.472Z,-2.55
2023-01-21T05:07:53.836Z,-2.55
2023-01-21T05:10:21.179Z,-2.46
2023-01-21T05:12:48.746Z,-2.31
2023-01-21T05:15:15.504Z,-2.45
2023-01-21T05:17:42.657Z,-2.43
2023-01-21T05:20:09.960Z,-2.57
2023-01-21T05:22:36.571Z,-2.49
2023-01-21T05:25:03.612Z,-2.67
2023-01-21T05:27:30.286Z,-2.55
2023-01-21T05:32:36.700Z,-2.82
2023-01-21T05:35:06.403Z,-2.84
2023-01-21T05:37:33.052Z,-2.73
2023-01-21T05:39:59.607Z,-2.88
2023-01-21T05:42:26.264Z,-2.90
2023-01-21T05:44:53.096Z,-2.93
2023-01-21T05:47:19.723Z,-2.99
2023-01-21T05:49:46.269Z,-2.92
2023-01-21T05:52:12.841Z,-2.71
2023-01-21T05:54:49.179Z,-2.59
2023-01-21T05:57:22.825Z,-2.60
2023-01-21T05:59:49.416Z,-2.56
2023-01-21T06:02:15.999Z,-2.34
2023-01-21T06:04:42.611Z,-2.48
2023-01-21T06:07:09.170Z,-2.45
2023-01-21T06:09:35.715Z,-2.13
2023-01-21T06:12:02.280Z,-2.37
2023-01-21T06:14:28.884Z,-2.22
2023-01-21T06:16:55.425Z,-2.20
2023-01-21T06:19:21.984Z,-2.39
2023-01-21T06:21:48.701Z,-2.50
2023-01-21T06:24:15.383Z,-2.37
2023-01-21T06:26:41.891Z,-2.60
2023-01-21T06:29:08.721Z,-2.64
2023-01-21T06:31:35.308Z,-2.36
2023-01-21T06:34:01.920Z,-2.29
2023-01-21T06:36:28.501Z,-2.22
2023-01-21T06:38:55.068Z,-2.51
2023-01-21T06:41:21.627Z,-2.49
2023-01-21T06:43:48.217Z,-2.79
2023-01-21T06:46:14.839Z,-3.06
2023-01-21T06:48:43.363Z,-3.06
2023-01-21T06:51:10.304Z,-3.15
2023-01-21T06:53:36.915Z,-3.19
2023-01-21T06:56:03.622Z,-3.11
2023-01-21T06:58:30.578Z,-3.18
2023-01-21T07:00:57.925Z,-3.12
2023-01-21T07:03:24.473Z,-2.99
2023-01-21T07:05:51.033Z,-2.81
2023-01-21T07:08:17.624Z,-3.16
2023-01-21T07:10:46.228Z,-3.19
2023-01-21T07:13:14.154Z,-3.23
2023-01-21T07:15:40.789Z,-3.25
2023-01-21T07:18:07.388Z,-2.95
2023-01-21T07:20:34.150Z,-2.90
2023-01-21T07:23:00.755Z,-2.78
2023-01-21T07:25:27.392Z,-2.85
2023-01-21T07:27:53.936Z,-2.76
2023-01-21T07:30:21.265Z,-2.65
2023-01-21T07:32:48.426Z,-2.74
2023-01-21T07:35:15.785Z,-2.70
2023-01-21T07:37:42.616Z,-2.74
2023-01-21T07:40:09.742Z,-2.60
2023-01-21T07:42:36.398Z,-2.65
2023-01-21T07:45:04.046Z,-2.35
2023-01-21T07:47:30.712Z,-2.12
2023-01-21T07:49:57.287Z,-2.04
2023-01-21T07:52:23.888Z,-1.98
2023-01-21T07:54:50.469Z,-1.92
2023-01-21T07:57:17.075Z,-2.02
2023-01-21T07:59:43.711Z,-1.94
2023-01-21T08:02:12.178Z,-1.90
2023-01-21T08:04:38.797Z,-1.93
2023-01-21T08:07:12.049Z,-1.93
2023-01-21T08:09:39.844Z,-2.02
2023-01-21T08:12:07.483Z,-1.95
2023-01-21T08:14:34.346Z,-2.04
2023-01-21T08:17:01.741Z,-1.96
2023-01-21T08:19:28.320Z,-1.83
2023-01-21T08:21:54.876Z,-1.80
2023-01-21T08:26:52.697Z,-1.96
2023-01-21T08:29:19.222Z,-1.80
2023-01-21T08:31:45.898Z,-1.91
2023-01-21T08:34:12.435Z,-1.95
2023-01-21T08:36:39.911Z,-1.85
2023-01-21T08:39:06.647Z,-1.81
2023-01-21T08:41:33.898Z,-2.09
2023-01-21T08:44:00.493Z,-1.88
2023-01-21T08:46:27.774Z,-1.78
2023-01-21T08:48:54.390Z,-1.76
2023-01-21T08:51:20.983Z,-1.59
2023-01-21T08:53:49.967Z,-1.48
2023-01-21T08:56:17.247Z,-1.47
2023-01-21T08:58:44.114Z,-1.28
2023-01-21T09:01:13.344Z,-1.25
2023-01-21T09:03:39.959Z,-1.15
2023-01-21T09:06:07.654Z,-1.05
2023-01-21T09:11:09.300Z,-0.98
2023-01-21T09:13:38.574Z,-1.04
2023-01-21T09:16:13.824Z,-1.09
2023-01-21T09:18:40.992Z,-1.02
2023-01-21T09:21:08.480Z,-0.85
2023-01-21T09:23:36.585Z,-0.79
2023-01-21T09:26:14.088Z,-0.85
2023-01-21T09:28:42.486Z,-0.77
2023-01-21T09:31:12.506Z,-0.71
2023-01-21T09:33:42.467Z,-0.89
2023-01-21T09:36:14.325Z,-0.76
2023-01-21T09:38:44.751Z,-0.74
2023-01-21T09:41:30.045Z,-0.58
2023-01-21T09:44:20.617Z,-0.55
2023-01-21T09:46:56.373Z,-0.50
2023-01-21T09:49:30.836Z,-0.43
2023-01-21T09:52:21.158Z,-0.46
2023-01-21T09:54:47.852Z,-0.48
2023-01-21T09:57:36.789Z,-0.43
2023-01-21T10:00:11.882Z,-0.31
2023-01-21T10:02:47.454Z,-0.26
2023-01-21T10:05:38.721Z,-0.17
2023-01-21T10:08:15.770Z,-0.24
2023-01-21T10:10:47.173Z,-0.36
2023-01-21T10:13:31.565Z,-0.22
2023-01-21T10:16:16.014Z,-0.22
2023-01-21T10:18:45.925Z,-0.34
2023-01-21T10:21:46.219Z,-0.37
2023-01-21T10:24:20.881Z,-0.24
2023-01-21T10:26:49.417Z,-0.16
2023-01-21T10:29:18.158Z,-0.03
2023-01-21T10:31:51.367Z,-0.05
2023-01-21T10:34:19.491Z,-0.13
2023-01-21T10:37:19.845Z,-0.04
2023-01-21T10:39:52.163Z,0.10
2023-01-21T10:42:40.106Z,0.33
2023-01-21T10:45:43.763Z,0.38
2023-01-21T10:48:32.422Z,0.22
2023-01-21T10:51:06.180Z,0.42
2023-01-21T10:53:45.493Z,0.28
2023-01-21T10:56:29.171Z,0.26
2023-01-21T10:59:01.178Z,0.30
2023-01-21T11:01:32.528Z,0.15
2023-01-21T11:06:59.685Z,0.28
2023-01-21T11:09:29.928Z,0.25
2023-01-21T11:11:56.877Z,0.30
2023-01-21T11:14:26.502Z,0.40
2023-01-21T11:16:53.699Z,0.36
2023-01-21T11:19:26.475Z,0.33
2023-01-21T11:24:48.806Z,0.26
2023-01-21T11:27:28.752Z,0.39
2023-01-21T11:29:55.334Z,0.43
2023-01-21T11:32:26.081Z,0.46
2023-01-21T11:35:02.181Z,0.48
2023-01-21T11:37:30.906Z,0.50
2023-01-21T11:40:01.848Z,0.52
2023-01-21T11:42:28.504Z,0.60
2023-01-21T11:45:24.435Z,0.72
2023-01-21T11:47:52.559Z,0.77
2023-01-21T11:50:34.863Z,0.71
2023-01-21T11:53:07.995Z,0.70
2023-01-21T11:55:45.615Z,0.84
2023-01-21T11:58:32.673Z,0.81
2023-01-21T12:03:56.807Z,0.60
2023-01-21T12:06:30.705Z,0.55
2023-01-21T12:09:02.919Z,0.72
2023-01-21T12:11:31.560Z,0.60
2023-01-21T12:17:18.234Z,0.67
2023-01-21T12:20:14.190Z,0.74
2023-01-21T12:23:01.281Z,0.76
2023-01-21T12:25:48.380Z,0.78
2023-01-21T12:28:20.530Z,0.84
2023-01-21T12:30:59.146Z,0.73
2023-01-21T12:33:31.846Z,0.74
2023-01-21T12:36:04.809Z,0.60
2023-01-21T12:38:41.172Z,0.98
2023-01-21T12:41:17.172Z,1.45
2023-01-21T12:43:56.605Z,0.96
2023-01-21T12:46:36.945Z,0.85
2023-01-21T12:49:20.287Z,0.85
2023-01-21T12:51:51.407Z,0.74
2023-01-21T12:54:23.614Z,0.62
2023-01-21T12:56:57.319Z,0.53
2023-01-21T12:59:43.319Z,0.50
2023-01-21T13:02:34.452Z,0.55
2023-01-21T13:05:23.501Z,0.52
2023-01-21T13:07:57.531Z,0.49
2023-01-21T13:10:38.230Z,1.32
2023-01-21T13:13:37.748Z,1.04
2023-01-21T13:16:08.164Z,2.60
2023-01-21T13:18:37.465Z,1.93
2023-01-21T13:21:28.174Z,1.37
2023-01-21T13:24:02.956Z,0.81
2023-01-21T13:26:57.258Z,0.74
2023-01-21T13:29:33.069Z,0.67
2023-01-21T13:32:32.450Z,0.70
2023-01-21T13:38:26.158Z,0.60
2023-01-21T13:41:20.594Z,0.64
2023-01-21T13:44:20.254Z,0.64
2023-01-21T13:47:26.921Z,0.58
2023-01-21T13:50:21.132Z,0.54
2023-01-21T13:53:06.370Z,0.53
2023-01-21T13:55:59.211Z,0.52
2023-01-21T13:58:38.959Z,0.42
2023-01-21T14:01:15.497Z,0.44
2023-01-21T14:04:04.355Z,0.43
2023-01-21T14:06:54.697Z,0.51
2023-01-21T14:09:38.406Z,0.49
2023-01-21T14:12:13.550Z,0.53
2023-01-21T14:14:58.242Z,0.48
2023-01-21T14:17:39.911Z,0.42
2023-01-21T14:20:30.690Z,2.33
2023-01-21T14:23:06.152Z,1.28
2023-01-21T14:26:03.044Z,0.96
2023-01-21T14:28:48.688Z,0.86
2023-01-21T14:31:21.512Z,0.70
2023-01-21T14:34:18.209Z,0.55
2023-01-21T14:36:54.036Z,0.48
2023-01-21T14:39:30.365Z,0.44
2023-01-21T14:42:14.999Z,0.38
2023-01-21T14:45:02.642Z,0.46
2023-01-21T14:47:29.127Z,0.44
2023-01-21T14:49:57.976Z,0.54
2023-01-21T14:52:33.253Z,0.42
2023-01-21T14:55:01.100Z,0.40
2023-01-21T14:57:37.052Z,0.32
2023-01-21T15:00:14.144Z,0.40
2023-01-21T15:02:44.707Z,0.34
2023-01-21T15:05:11.325Z,0.61
2023-01-21T15:07:41.655Z,0.55
2023-01-21T15:10:33.853Z,0.58
2023-01-21T15:13:04.948Z,0.44
2023-01-21T15:15:39.828Z,0.71
2023-01-21T15:18:09.185Z,0.56
2023-01-21T15:20:50.832Z,0.54
2023-01-21T15:23:21.981Z,0.47
2023-01-21T15:26:07.309Z,0.29
2023-01-21T15:28:52.263Z,0.24
2023-01-21T15:31:18.889Z,0.34
2023-01-21T15:33:48.434Z,0.38
2023-01-21T15:36:22.809Z,0.28
2023-01-21T15:38:50.882Z,0.33
2023-01-21T15:41:27.117Z,0.43
2023-01-21T15:44:17.638Z,0.35
2023-01-21T15:46:51.687Z,0.33
2023-01-21T15:49:31.238Z,0.44
2023-01-21T15:52:00.574Z,0.44
2023-01-21T15:54:51.754Z,0.49
2023-01-21T15:58:00.745Z,0.44
2023-01-21T16:00:35.022Z,0.41
2023-01-21T16:03:23.392Z,0.28
2023-01-21T16:05:59.665Z,0.29
2023-01-21T16:08:47.594Z,0.32
2023-01-21T16:11:14.092Z,0.31
2023-01-21T16:14:13.694Z,0.44
2023-01-21T16:17:14.354Z,0.42
2023-01-21T16:19:45.539Z,0.32
2023-01-21T16:22:18.870Z,0.37
2023-01-21T16:24:50.105Z,0.39
2023-01-21T16:27:31.217Z,0.39
2023-01-21T16:30:03.771Z,0.42
2023-01-21T16:32:32.526Z,0.47
2023-01-21T16:35:00.188Z,0.48
2023-01-21T16:37:28.870Z,0.47
2023-01-21T16:40:19.522Z,0.54
2023-01-21T16:42:46.391Z,0.48
2023-01-21T16:45:22.276Z,0.36
2023-01-21T16:47:59.695Z,0.76
2023-01-21T16:50:28.914Z,0.38
2023-01-21T16:52:57.540Z,0.44
2023-01-21T16:55:30.832Z,0.37
2023-01-21T16:57:59.144Z,0.59
2023-01-21T17:00:29.869Z,0.69
2023-01-21T17:03:00.432Z,0.54
2023-01-21T17:05:31.724Z,0.91
2023-01-21T17:08:01.810Z,0.59
2023-01-21T17:10:39.260Z,0.42
2023-01-21T17:13:13.043Z,0.36
2023-01-21T17:15:49.618Z,0.39
2023-01-21T17:18:26.122Z,0.38
2023-01-21T17:21:04.950Z,0.43
2023-01-21T17:23:37.371Z,0.31
2023-01-21T17:26:13.682Z,0.36
2023-01-21T17:28:46.358Z,0.20
2023-01-21T17:31:15.850Z,0.39
2023-01-21T17:33:44.181Z,0.39
2023-01-21T17:36:16.009Z,0.37
2023-01-21T17:38:45.329Z,0.27
2023-01-21T17:41:26.380Z,0.24
2023-01-21T17:43:58.212Z,0.30
2023-01-21T17:46:25.370Z,0.28
2023-01-21T17:51:30.422Z,0.29
2023-01-21T17:54:00.777Z,0.34
2023-01-21T17:56:59.795Z,0.29
2023-01-21T17:59:26.311Z,0.31
2023-01-21T18:01:55.153Z,0.29
2023-01-21T18:04:22.718Z,0.31
2023-01-21T18:06:51.140Z,0.30
2023-01-21T18:09:20.057Z,0.31
2023-01-21T18:11:51.820Z,0.21
2023-01-21T18:14:21.695Z,0.34
2023-01-21T18:16:48.548Z,0.59
2023-01-21T18:19:32.223Z,0.62
2023-01-21T18:22:00.452Z,0.53
2023-01-21T18:24:27.916Z,0.43
2023-01-21T18:26:56.577Z,0.44
2023-01-21T18:29:27.213Z,0.34
2023-01-21T18:31:53.971Z,0.38
2023-01-21T18:34:20.578Z,0.30
2023-01-21T18:36:47.270Z,0.35
2023-01-21T18:44:23.183Z,0.26
2023-01-21T18:46:49.814Z,0.23
2023-01-21T18:49:19.647Z,0.25
2023-01-21T18:51:46.857Z,0.21
2023-01-21T18:54:14.550Z,0.25
2023-01-21T18:56:42.534Z,0.28
2023-01-21T18:59:17.611Z,0.26
2023-01-21T19:01:45.041Z,0.22
2023-01-21T19:04:18.312Z,0.18
2023-01-21T19:06:50.563Z,0.21
2023-01-21T19:09:21.055Z,0.22
2023-01-21T19:11:47.902Z,0.28
2023-01-21T19:14:14.675Z,0.36
2023-01-21T19:16:42.929Z,0.32
2023-01-21T19:19:11.188Z,0.43
2023-01-21T19:21:38.470Z,0.32
2023-01-21T19:24:06.594Z,0.34
2023-01-21T19:26:34.017Z,0.25
2023-01-21T19:29:02.257Z,0.15
2023-01-21T19:31:29.026Z,0.25
2023-01-21T19:33:55.783Z,0.29
2023-01-21T19:39:01.639Z,0.29
2023-01-21T19:41:28.271Z,0.33
2023-01-21T19:43:54.870Z,0.35
2023-01-21T19:46:23.951Z,0.29
2023-01-21T19:48:53.764Z,0.41
2023-01-21T19:51:20.719Z,0.40
2023-01-21T19:53:47.404Z,0.33
2023-01-21T19:56:22.933Z,0.34
2023-01-21T19:58:50.148Z,0.38
2023-01-21T20:01:16.802Z,0.43
2023-01-21T20:03:58.497Z,0.36
2023-01-21T20:06:27.380Z,0.42
2023-01-21T20:08:54.020Z,0.27
2023-01-21T20:11:20.923Z,0.29
2023-01-21T20:13:47.553Z,0.26
2023-01-21T20:16:21.092Z,0.34
2023-01-21T20:18:49.443Z,0.44
2023-01-21T20:21:16.555Z,0.47
2023-01-21T20:23:43.326Z,0.32
2023-01-21T20:26:18.232Z,0.30
2023-01-21T20:28:47.947Z,0.26
2023-01-21T20:31:14.657Z,0.35
2023-01-21T20:33:43.715Z,0.36
2023-01-21T20:36:18.230Z,0.32
2023-01-21T20:38:45.022Z,0.36
2023-01-21T20:41:13.435Z,0.38
2023-01-21T20:43:40.370Z,0.35
2023-01-21T20:46:21.593Z,0.25
2023-01-21T20:48:48.839Z,0.21
2023-01-21T20:51:15.551Z,0.21
2023-01-21T20:53:42.251Z,0.22
2023-01-21T20:59:06.245Z,0.33
2023-01-21T21:04:06.563Z,0.28
2023-01-21T21:06:33.678Z,0.23
2023-01-21T21:09:00.282Z,0.60
2023-01-21T21:11:26.927Z,0.73
2023-01-21T21:13:53.491Z,1.04
2023-01-21T21:16:23.299Z,0.69
2023-01-21T21:18:50.576Z,0.54
2023-01-21T21:21:18.390Z,0.48
2023-01-21T21:23:48.258Z,0.47
2023-01-21T21:26:17.090Z,0.43
2023-01-21T21:28:44.855Z,0.36
2023-01-21T21:31:14.215Z,0.29
2023-01-21T21:33:41.695Z,0.40
2023-01-21T21:36:20.751Z,0.41
2023-01-21T21:38:49.048Z,0.31
2023-01-21T21:41:35.824Z,0.30
2023-01-21T21:44:04.078Z,0.17
2023-01-21T21:46:49.211Z,0.20
2023-01-21T21:49:15.955Z,0.18
2023-01-21T21:51:44.742Z,0.30
2023-01-21T21:54:14.245Z,0.25
2023-01-21T21:56:41.192Z,0.27
2023-01-21T21:59:08.293Z,0.16
2023-01-21T22:01:36.190Z,0.28
2023-01-21T22:04:03.791Z,0.16
2023-01-21T22:06:31.232Z,0.29
2023-01-21T22:08:58.952Z,0.15
2023-01-21T22:11:26.892Z,0.22
2023-01-21T22:13:54.865Z,0.13
2023-01-21T22:16:24.229Z,0.18
2023-01-21T22:18:51.593Z,0.25
2023-01-21T22:21:24.073Z,0.22
2023-01-21T22:23:51.146Z,0.26
2023-01-21T22:26:20.497Z,0.21
2023-01-21T22:28:47.465Z,0.20
2023-01-21T22:31:16.530Z,0.07
2023-01-21T22:33:43.938Z,0.13
2023-01-21T22:36:14.083Z,0.25
2023-01-21T22:38:41.096Z,0.19
2023-01-21T22:41:09.310Z,0.15
2023-01-21T22:43:38.052Z,0.26
2023-01-21T22:46:04.986Z,0.25
2023-01-21T22:48:32.835Z,0.24
2023-01-21T22:51:01.294Z,0.18
2023-01-21T22:53:28.336Z,0.33
2023-01-21T22:56:00.691Z,0.34
2023-01-21T23:01:01.494Z,0.22
2023-01-21T23:03:29.269Z,0.19
2023-01-21T23:06:05.590Z,0.26
2023-01-21T23:08:32.330Z,0.35
2023-01-21T23:11:06.861Z,0.28
2023-01-21T23:13:34.607Z,0.28
2023-01-21T23:16:01.901Z,0.16
2023-01-21T23:18:29.247Z,0.17
2023-01-21T23:20:56.519Z,0.05
2023-01-21T23:23:23.899Z,0.18
2023-01-21T23:25:50.684Z,0.17
2023-01-21T23:28:17.823Z,0.25
2023-01-21T23:30:44.646Z,0.25
2023-01-21T23:33:11.949Z,0.18
2023-01-21T23:35:38.539Z,0.22
2023-01-21T23:38:05.250Z,0.18
2023-01-21T23:40:31.808Z,0.16
2023-01-21T23:42:58.469Z,0.23
2023-01-21T23:47:56.312Z,0.32
2023-01-21T23:50:22.856Z,0.30
2023-01-21T23:52:49.447Z,0.25
2023-01-21T23:55:16.072Z,0.30
2023-01-21T23:57:42.607Z,0.16
